WCOM7: Spring River, Waco, MO

                                SHEF ID:       WCOM7     Spring R A - Waco MO
STATION TYPE: Stream Gauge
Regulating: Stage = 19.00, Flow = 17743

PRECIP STAGE RIV-FLOW BAT-LOAD
in ft cfs volt
Ccp-Rev Ccp-Rev Ccp-Rev Ccp-Rev
(America/Chicago)
04/28 00:00 0.00 4.54 1986 12.15
04/28 01:00 0.00 4.46 1925 12.14
04/28 02:00 0.00 4.40 1880 12.13
04/28 03:00 0.00 4.36 1850 12.12
04/28 04:00 0.00 4.26 1776 12.11
04/28 05:00 0.00 4.17 1710 12.09
04/28 06:00 0.00 4.14 1689 12.14
04/28 07:00 0.00 4.12 1674 12.16
04/28 08:00 0.00 4.03 1610 12.22
04/28 09:00 0.00 4.03 1610 12.49
04/28 10:00 0.00 3.88 1503 13.03
04/28 11:00 0.00 3.90 1517 12.96
04/28 12:00 0.00 3.80 1446 12.77
04/28 13:00 0.00 3.95 1553 12.59
04/28 14:00 0.00 4.12 1674 12.43
04/28 15:00 0.00 4.77 2159 12.67
04/28 16:00 0.00 5.74 2933 12.66
04/28 17:00 0.00 6.50 3598 12.64
04/28 18:00 0.00 7.04 4103 12.59
04/28 19:00 0.00 7.23 4281 12.46
04/28 20:00 0.00 7.44 4480 12.38
04/28 21:00 0.00 7.54 4575 12.22
04/28 22:00 0.00 7.61 4642 12.17
04/28 23:00 0.00 7.59 4623 12.17
Data processed at Wed 29Apr2026 04:37 GMT

NOTICE: If you are parsing this page

Please convert to using our Data API. Starting early 2026 we will be migrating to: https://water.usace.army.mil with modern pages rendered in JavaScript. When this migration completes you will no longer be able to scrape this page! CWMSDataAPI (CDA)

Timeseries IDs (TSIDs)

TSIDs used from left to right in the data table
WACO.Precip-Inc.Total.1Hour.1Hour.Ccp-Rev
WACO.Stage.Inst.1Hour.0.Ccp-Rev
WACO.Flow.Inst.1Hour.0.Ccp-Rev
WACO.Volt-Battery Load.Inst.1Hour.0.Ccp-Rev

                            

All information presented herein is the property of the government of the United States of America and may be revised or deleted at any time without prior notice. Dissemination of this information without the expressed written consent of the Public Affairs Office, Tulsa District U.S. Army Corps of Engineers is strictly prohibited. These data are gathered electronically and, as presented, have NOT undergone any form of quality control. These data are NOT guaranteed to be valid or correct.